Airfield :







YOU CAN JOIN US ON...

 
LOGIN :

Register | Disclaimer

   EN    FR    IT 

 









Legend :    VFR   Marginal VFR   IFR   Intensive IFR   Very Intensive IFR
Visi :
Ceiling :
>= 8 km
>= 3000ft
5 to 8 km
1000 to 3000 ft
1500m to 5 km
500 to 1000 ft
800 to 1500m
200 to 500 ft
< 800m
< 200 ft
Symbols :   Thunderstorms  Fog  Heavy snow  Heavy precipitations  Wind > 20 kt






- Airport Elevation : 348 ft


KFIT - Fitchburg Municipal

CURRENT METAR :
  • 041452Z AUTO 01007KT 10SM BKN018 OVC023 07/02 A3006 RMK AO2 SLP181 T00720022 53004

EXPIRED METARs :
  • 041417Z AUTO 01008KT 10SM BKN016 OVC022 06/02 A3006 RMK AO2 T00610022
  • 041352Z AUTO 02005KT 10SM OVC014 06/02 A3005 RMK AO2 SLP180 T00560022
  • 041309Z AUTO 01005KT 10SM OVC013 05/02 A3005 RMK AO2 T00500022

TAF N/A



MET'MAP, your aeronautical weather chart ! - Copyright ORBIFLY December 2007 - Disclaimer

ORBIFLY MET'MAP TEAM :

Programming & Development : Alexandra Zaïnal
Concept & original design : Baudouin d'Aumeries
Assistance for programming : Marc-Olivier Méhu
Technical & hardware support : Manuel Goepfert

Contact : metmap@orbifly.com




SOURCES & CREDITS :

   NOAA